Station: Holsworthy  

  Atmospheric Gas Attenuation - ITU Rec 676-11   ----------------- dB/100km -----------------
Date Time Temp RH % AH g/m3 Dew Point Wind Direction Speed kph Gust kph Barometer mB Rainfall Since 9am 24GHz 47GHz 76GHz 122GHz 134GHz 241GHz
08/05 12:30 18.8 38 6.12 4.2 30 43 1016.7 0 14.1 21.0 28.6 74.7 63.3 215.9
08/05 12:20 18.8 38 6.12 4.2 26 30 1016.8 0 14.1 21.0 28.6 74.7 63.3 215.9
08/05 12:10 18.4 38 5.98 3.8 30 35 1017 0 13.9 20.9 28.3 73.8 62.0 211.5
08/05 12:00 18.7 40 6.4 4.8 22 37 1017.2 0 14.7 21.4 29.7 77.4 66.6 227.4
08/05 11:50 18.3 41 6.41 4.8 22 30 1017.2 0 14.8 21.6 29.8 77.8 67.0 228.9
08/05 11:40 18.1 42 6.49 5 20 28 1017.5 0 14.9 21.7 30.2 78.8 68.1 232.8
08/05 11:30 17.7 41 6.19 4.3 20 37 1017.5 0 14.3 21.4 29.3 76.4 65.0 221.8
08/05 11:20 17.8 43 6.53 5.1 22 28 1017.6 0 15.0 21.9 30.5 79.5 68.8 235.3
08/05 11:10 17.7 44 6.64 5.3 19 24 1017.7 0 15.3 22.0 30.9 80.6 70.2 240.1
08/05 11:00 17.2 43 6.3 4.5 26 41 1017.8 0 14.6 21.7 29.9 77.9 66.7 227.7
08/05 10:50 17 43 6.22 4.3 30 39 1018 0 14.4 21.6 29.7 77.4 65.9 225.0
08/05 10:40 17.1 43 6.26 4.4 22 35 1018.2 0 14.5 21.7 29.8 77.7 66.3 226.4
08/05 10:30 16.9 44 6.33 4.6 22 46 1018.1 0 14.6 21.8 30.1 78.5 67.3 229.8
08/05 10:20 16.4 45 6.28 4.4 22 28 1018.1 0 14.6 21.8 30.1 78.5 67.1 229.2
08/05 10:10 16.2 46 6.34 4.6 26 33 1018.3 0 14.7 22.0 30.4 79.3 68.0 232.2
08/05 10:00 16.2 47 6.48 4.9 22 35 1018.5 0 15.0 22.2 30.9 80.7 69.7 238.1
08/05 09:50 15.7 48 6.42 4.7 17 20 1018.5 0 14.9 22.2 30.9 80.6 69.4 237.1
08/05 09:40 15.3 48 6.27 4.4 26 39 1018.5 0 14.6 22.1 30.5 79.5 68.0 231.9
08/05 09:30 15.3 49 6.4 4.7 17 26 1018.6 0 14.8 22.3 31.0 80.8 69.5 237.4
08/05 09:20 15 50 6.41 4.7 19 24 1018.6 0 14.9 22.4 31.1 81.2 69.9 238.7
08/05 09:10 14.5 51 6.34 4.5 19 24 1018.5 0 14.8 22.4 31.1 81.0 69.5 237.2
08/05 09:00 14.1 53 6.43 4.7 15 26 1018.5 0 15.0 22.6 31.5 82.3 70.9 242.2
08/05 08:50 13.9 55 6.59 5 11 13 1018.6 0 15.3 22.9 32.2 84.1 73.1 249.7
08/05 08:40 13.3 58 6.7 5.2 7 9 1018.7 0 15.6 23.2 32.9 85.8 75.0 256.4
08/05 08:30 12.5 57 6.27 4.2 9 19 1018.6 0 14.7 22.8 31.6 82.4 70.4 240.2
08/05 08:20 12.5 58 6.38 4.5 15 17 1018.5 0 14.9 23.0 32.0 83.5 71.8 244.9
08/05 08:10 11.8 61 6.42 4.5 13 17 1018.4 0 15.0 23.2 32.4 84.6 72.9 248.8
08/05 08:00 11.3 64 6.53 4.7 7 9 1018.4 0 15.3 23.5 33.0 86.2 74.8 255.2
08/05 07:50 10.8 63 6.23 4 7 9 1018.3 0 14.7 23.2 32.1 83.7 71.4 243.5
08/05 07:40 10.5 64 6.21 4 7 7 1018.3 0 14.6 23.2 32.1 83.8 71.4 243.5
08/05 07:30 9.8 66 6.13 3.8 7 9 1018.2 0 14.5 23.2 32.1 83.7 71.1 242.1
08/05 07:20 9.1 67 5.95 3.3 9 13 1018.2 0 14.1 23.1 31.7 82.6 69.4 236.1
08/05 07:10 8.7 66 5.71 2.7 9 9 1018.1 0 13.6 22.9 30.9 80.5 66.7 226.6
08/05 07:00 8.6 66 5.67 2.6 7 9 1018 0 13.5 22.8 30.8 80.2 66.3 225.1
08/05 06:50 8.5 66 5.64 2.5 7 9 1018 0 13.5 22.8 30.7 80.0 66.0 224.0
08/05 06:40 8.6 65 5.59 2.4 9 11 1018 0 13.4 22.7 30.5 79.4 65.2 221.5
08/05 06:30 8.7 65 5.62 2.5 9 17 1018 0 13.4 22.7 30.5 79.6 65.5 222.6
08/05 06:20 8.5 66 5.64 2.5 9 11 1018 0 13.5 22.8 30.7 80.0 66.0 224.0
08/05 06:10 8.1 67 5.58 2.4 9 11 1018 0 13.4 22.8 30.6 79.8 65.5 222.4
08/05 06:00 8 66 5.46 2 6 9 1018 0 13.1 22.7 30.2 78.7 64.1 217.4
08/05 05:50 8.4 65 5.52 2.2 7 9 1018.1 0 13.2 22.7 30.3 78.9 64.5 219.0
08/05 05:40 8.4 65 5.52 2.2 7 9 1017.9 0 13.2 22.6 30.3 78.9 64.5 218.9
08/05 05:30 8.5 65 5.55 2.3 11 15 1017.7 0 13.3 22.7 30.3 79.1 64.8 219.9
08/05 05:20 8.4 65 5.52 2.2 15 17 1017.8 0 13.2 22.6 30.3 78.9 64.5 218.9
08/05 05:10 8.5 65 5.55 2.3 9 11 1017.9 0 13.3 22.7 30.3 79.1 64.8 220.0
08/05 05:00 8.4 64 5.43 2 7 11 1018 0 13.0 22.5 29.9 78.0 63.4 215.0
08/05 04:50 8.5 63 5.38 1.9 7 9 1018 0 12.9 22.4 29.7 77.3 62.7 212.5
08/05 04:40 8.5 63 5.38 1.9 7 9 1018 0 12.9 22.4 29.7 77.3 62.7 212.5
08/05 04:30 8.6 63 5.42 2 9 13 1018.2 0 13.0 22.5 29.8 77.7 63.1 214.0
08/05 04:20 8.6 63 5.42 2 11 13 1018.1 0 13.0 22.5 29.8 77.7 63.1 214.0
08/05 04:10 8.6 63 5.42 2 11 13 1017.9 0 13.0 22.4 29.8 77.6 63.1 214.0
08/05 04:00 8.7 62 5.36 1.8 11 17 1017.7 0 12.9 22.3 29.5 76.9 62.3 211.0
08/05 03:50 8.7 62 5.36 1.8 11 13 1017.8 0 12.9 22.3 29.5 76.9 62.3 211.0
08/05 03:40 8.7 62 5.36 1.8 11 13 1018 0 12.9 22.3 29.6 77.0 62.3 211.1
08/05 03:30 8.6 62 5.33 1.7 13 20 1018.1 0 12.8 22.3 29.5 76.8 62.0 210.0
08/05 03:20 8.7 61 5.28 1.6 13 17 1018.2 0 12.7 22.2 29.3 76.2 61.3 207.6
08/05 03:10 8.7 61 5.28 1.6 17 20 1018.3 0 12.7 22.2 29.3 76.2 61.3 207.6
08/05 03:00 8.7 61 5.28 1.6 13 19 1018.4 0 12.7 22.2 29.3 76.2 61.3 207.6
08/05 02:50 8.4 61 5.18 1.3 13 15 1018.6 0 12.5 22.2 29.0 75.5 60.3 204.1
08/05 02:40 8.4 61 5.18 1.3 11 13 1018.7 0 12.5 22.2 29.0 75.5 60.3 204.1
08/05 02:30 8.5 60 5.12 1.2 11 15 1018.7 0 12.4 22.0 28.7 74.8 59.5 201.2
08/05 02:20 8.5 59 5.04 1 13 15 1018.7 0 12.2 21.9 28.4 74.0 58.5 197.7
08/05 02:10 8.5 59 5.04 1 11 13 1018.7 0 12.2 21.9 28.4 74.0 58.5 197.7
08/05 02:00 8.7 58 5.02 0.9 15 20 1018.8 0 12.2 21.8 28.3 73.6 58.1 196.4
08/05 01:50 8.7 58 5.02 0.9 15 19 1018.8 0 12.2 21.8 28.3 73.6 58.1 196.4
08/05 01:40 8.7 58 5.02 0.9 17 20 1019 0 12.2 21.9 28.3 73.6 58.1 196.4
08/05 01:30 8.8 57 4.96 0.8 13 20 1019.1 0 12.0 21.7 28.1 72.9 57.3 193.6
08/05 01:20 9 56 4.94 0.7 19 20 1019.2 0 12.0 21.7 27.9 72.6 56.9 192.3
08/05 01:10 9 55 4.85 0.5 9 11 1019.2 0 11.8 21.5 27.6 71.7 55.8 188.4
08/05 01:00 9.2 54 4.82 0.4 15 24 1019.2 0 11.7 21.4 27.4 71.2 55.3 186.7
08/05 00:50 9.4 53 4.79 0.3 15 20 1019.4 0 11.6 21.4 27.2 70.8 54.8 185.0
08/05 00:40 9.2 53 4.73 0.1 15 20 1019.4 0 11.5 21.3 27.1 70.3 54.2 182.9
08/05 00:20 9.1 53 4.7 0 15 19 1019.5 0 11.5 21.3 27.0 70.1 53.9 181.9
08/05 00:10 9 53 4.67 -0.1 9 11 1019.5 0 11.4 21.3 26.9 69.9 53.6 180.8
08/05 00:00 9.1 53 4.7 0 11 17 1019.6 0 11.5 21.3 27.0 70.2 53.9 181.9
07/05 23:50 9 53 4.67 -0.1 13 17 1019.6 0 11.4 21.3 26.9 69.9 53.7 180.8
07/05 23:40 9.1 52 4.62 -0.2 9 11 1019.5 0 11.3 21.2 26.7 69.4 53.0 178.5
07/05 23:30 8.7 54 4.67 -0.1 9 20 1019.5 0 11.4 21.3 27.0 70.2 53.8 181.5
07/05 23:20 8.3 55 4.64 -0.2 9 11 1019.6 0 11.4 21.4 27.1 70.3 53.8 181.1
07/05 23:10 8.4 54 4.58 -0.4 6 7 1019.4 0 11.2 21.3 26.8 69.6 53.0 178.3
07/05 23:00 8.8 53 4.61 -0.2 7 11 1019.3 0 11.3 21.2 26.8 69.5 53.0 178.7
07/05 22:50 8.8 53 4.61 -0.2 9 11 1019.3 0 11.3 21.2 26.8 69.5 53.0 178.7
07/05 22:40 9 52 4.59 -0.3 11 13 1019.4 0 11.2 21.2 26.6 69.1 52.7 177.4
07/05 22:30 9.6 50 4.58 -0.3 13 20 1019.3 0 11.2 21.0 26.4 68.5 52.2 175.6
07/05 22:20 9.8 50 4.64 -0.1 17 19 1019.4 0 11.3 21.0 26.6 68.9 52.7 177.7
07/05 22:10 9.7 50 4.61 -0.2 19 24 1019.4 0 11.2 21.0 26.5 68.7 52.5 176.7
07/05 22:00 9.8 50 4.64 -0.1 15 24 1019.4 0 11.3 21.0 26.6 68.9 52.7 177.7
07/05 21:50 9.8 49 4.55 -0.4 13 19 1019.5 0 11.1 20.9 26.2 68.1 51.7 174.0
07/05 21:40 9.9 49 4.58 -0.3 13 17 1019.6 0 11.2 20.9 26.3 68.3 52.0 175.0
07/05 21:30 10.1 48 4.54 -0.4 17 24 1019.6 0 11.1 20.8 26.1 67.7 51.4 172.9
07/05 21:20 9.9 48 4.48 -0.6 13 17 1019.6 0 11.0 20.8 26.0 67.3 50.8 170.9
07/05 21:10 10.2 47 4.47 -0.6 11 13 1019.5 0 10.9 20.7 25.8 67.0 50.5 169.8
07/05 21:00 10.4 46 4.43 -0.7 13 22 1019.3 0 10.8 20.6 25.6 66.4 49.9 167.7
07/05 20:50 10.6 45 4.39 -0.8 17 20 1019.3 0 10.8 20.5 25.4 65.9 49.3 165.6
07/05 20:40 10.5 45 4.37 -0.9 11 15 1019.2 0 10.7 20.5 25.4 65.8 49.1 165.0
07/05 20:30 10.6 45 4.39 -0.8 15 24 1019.1 0 10.8 20.5 25.4 65.9 49.3 165.6
07/05 20:20 10.8 44 4.35 -0.9 22 28 1018.9 0 10.7 20.4 25.2 65.3 48.7 163.5
07/05 20:10 10.9 44 4.38 -0.9 20 28 1018.8 0 10.7 20.4 25.3 65.5 49.0 164.6
07/05 20:00 11 43 4.3 -1.1 20 33 1018.6 0 10.6 20.3 25.0 64.7 48.0 161.1
07/05 19:50 11.1 43 4.33 -1 19 26 1018.6 0 10.6 20.3 25.0 64.9 48.2 162.1

Last Refresh: 08-May-2026 12:08:50

Bureau of Meteorology